Algocanada — CFN5193 — position and weather

sailwx.info

Track history (hours):
 
Tides and Currents Weather Stations Pressure Air Temp Water Temp Dewpoint Dewpoint Depression Visibility Wind Speed Wind Dir Waves Ship Positions

Algocanada

Last reported at 2017-Nov-18 06:33 UTC. Time now 2017-Nov-21 06:23 UTC.
Position N 45°14' W 074°14'.

Length 130 m; draft 4.9 m.

Type: Ship. MMSI: 316013215.

Date/timePositionNaut miles runAvg speedWind from/ knotsBaromVisibWave heightAir tempDewpointWater temp
2017-Nov-18 06:33N 45°14' W 074°14'112.0
2017-Nov-18 06:30N 45°14' W 074°14'710.4
2017-Nov-18 05:51N 45°13' W 074°04'3 9.8
2017-Nov-18 05:30N 45°14' W 073°59'5 9.2
2017-Nov-18 05:00N 45°18' W 073°56'1 1.1
2017-Nov-18 04:30N 45°19' W 073°55'0 1.0
2017-Nov-18 04:00N 45°19' W 073°55'2 3.8
2017-Nov-18 03:30N 45°20' W 073°53'4 8.9
2017-Nov-18 03:01N 45°23' W 073°48'4 8.2
2017-Nov-18 02:30N 45°25' W 073°43'3 6.1
2017-Nov-18 02:00N 45°24' W 073°38'3 6.2
2017-Nov-18 01:30N 45°24' W 073°34'0 0.6
2017-Nov-18 01:01N 45°24' W 073°34'2 4.5
2017-Nov-18 00:30N 45°25' W 073°31'3 6.7
2017-Nov-18 00:00N 45°29' W 073°30'1 2.2
2017-Nov-17 23:28N 45°30' W 073°31'1 2.5
2017-Nov-17 22:56N 45°31' W 073°31'0 0.0
2017-Nov-16 18:00N 45°31' W 073°32'2 2.0
2017-Nov-16 17:11N 45°30' W 073°31'1 2.8
2017-Nov-16 16:57N 45°29' W 073°31'3 6.9
2017-Nov-16 16:30N 45°26' W 073°30'3 4.0
2017-Nov-16 15:44N 45°24' W 073°34'0 1.0
2017-Nov-16 15:30N 45°24' W 073°34'3 5.5
2017-Nov-16 14:59N 45°24' W 073°38'3 6.1
2017-Nov-16 14:30N 45°25' W 073°42'611.0
2017-Nov-16 13:59N 45°22' W 073°50'510.1
2017-Nov-16 13:30N 45°19' W 073°55'0 0.4
2017-Nov-16 13:00N 45°19' W 073°55'1 1.6
2017-Nov-16 12:30N 45°18' W 073°56'1 1.4
2017-Nov-16 12:00N 45°18' W 073°56'3 5.4
2017-Nov-16 11:30N 45°15' W 073°58'6 9.7
2017-Nov-16 10:53N 45°13' W 074°06'410.3
2017-Nov-16 10:30N 45°14' W 074°12'4 7.2
2017-Nov-16 10:00N 45°13' W 074°17'  
Track history (hours):
 
Tides and Currents Weather Stations Pressure Air Temp Water Temp Dewpoint Dewpoint Depression Visibility Wind Speed Wind Dir Waves Ship Positions

Algocanada

Last reported at 2017-Nov-18 06:33 UTC. Time now 2017-Nov-21 06:23 UTC.
Position N 45°14' W 074°14'.

Length 130 m; draft 4.9 m.

Type: Ship. MMSI: 316013215.

Date/timePositionNaut miles runAvg speedWind from/ knotsBaromVisibWave heightAir tempDewpointWater temp
2017-Nov-18 06:33N 45°14' W 074°14'112.0
2017-Nov-18 06:30N 45°14' W 074°14'710.4
2017-Nov-18 05:51N 45°13' W 074°04'3 9.8
2017-Nov-18 05:30N 45°14' W 073°59'5 9.2
2017-Nov-18 05:00N 45°18' W 073°56'1 1.1
2017-Nov-18 04:30N 45°19' W 073°55'0 1.0
2017-Nov-18 04:00N 45°19' W 073°55'2 3.8
2017-Nov-18 03:30N 45°20' W 073°53'4 8.9
2017-Nov-18 03:01N 45°23' W 073°48'4 8.2
2017-Nov-18 02:30N 45°25' W 073°43'3 6.1
2017-Nov-18 02:00N 45°24' W 073°38'3 6.2
2017-Nov-18 01:30N 45°24' W 073°34'0 0.6
2017-Nov-18 01:01N 45°24' W 073°34'2 4.5
2017-Nov-18 00:30N 45°25' W 073°31'3 6.7
2017-Nov-18 00:00N 45°29' W 073°30'1 2.2
2017-Nov-17 23:28N 45°30' W 073°31'1 2.5
2017-Nov-17 22:56N 45°31' W 073°31'0 0.0
2017-Nov-16 18:00N 45°31' W 073°32'2 2.0
2017-Nov-16 17:11N 45°30' W 073°31'1 2.8
2017-Nov-16 16:57N 45°29' W 073°31'3 6.9
2017-Nov-16 16:30N 45°26' W 073°30'3 4.0
2017-Nov-16 15:44N 45°24' W 073°34'0 1.0
2017-Nov-16 15:30N 45°24' W 073°34'3 5.5
2017-Nov-16 14:59N 45°24' W 073°38'3 6.1
2017-Nov-16 14:30N 45°25' W 073°42'611.0
2017-Nov-16 13:59N 45°22' W 073°50'510.1
2017-Nov-16 13:30N 45°19' W 073°55'0 0.4
2017-Nov-16 13:00N 45°19' W 073°55'1 1.6
2017-Nov-16 12:30N 45°18' W 073°56'1 1.4
2017-Nov-16 12:00N 45°18' W 073°56'3 5.4
2017-Nov-16 11:30N 45°15' W 073°58'6 9.7
2017-Nov-16 10:53N 45°13' W 074°06'410.3
2017-Nov-16 10:30N 45°14' W 074°12'4 7.2
2017-Nov-16 10:00N 45°13' W 074°17'  

Dump ship's entire track history